TimeCST,TemperatureF,Dew PointF,Humidity,Sea Level PressureIn,VisibilityMPH,Wind Direction,Wind SpeedMPH,Gust SpeedMPH,PrecipitationIn,Events,Conditions,WindDirDegrees,DateUTC
12:53 AM,35.1,28.0,76,29.60,10.0,WNW,11.5,-,N/A,,Clear,290,2014-01-20 06:53:00
1:53 AM,34.0,28.0,79,29.64,10.0,WNW,10.4,-,N/A,,Mostly Cloudy,290,2014-01-20 07:53:00
2:53 AM,35.1,28.0,76,29.68,10.0,WNW,10.4,18.4,N/A,,Overcast,300,2014-01-20 08:53:00
3:50 AM,33.8,28.4,81,29.69,10.0,NW,10.4,-,N/A,,Overcast,310,2014-01-20 09:50:00
3:53 AM,34.0,27.0,75,29.72,10.0,NW,12.7,19.6,N/A,,Overcast,320,2014-01-20 09:53:00
4:50 AM,33.8,28.4,81,29.72,10.0,NNW,12.7,19.6,N/A,,Overcast,340,2014-01-20 10:50:00
4:53 AM,33.1,28.0,82,29.75,10.0,North,12.7,-,N/A,,Overcast,350,2014-01-20 10:53:00
5:53 AM,30.9,28.0,89,29.79,10.0,North,12.7,17.3,N/A,,Overcast,350,2014-01-20 11:53:00
6:53 AM,30.9,28.0,89,29.82,10.0,NNW,6.9,-,N/A,,Overcast,340,2014-01-20 12:53:00
7:07 AM,30.9,27.0,85,29.81,10.0,NNW,6.9,-,N/A,,Overcast,330,2014-01-20 13:07:00
7:14 AM,30.9,27.0,85,29.81,10.0,NW,4.6,-,N/A,,Overcast,310,2014-01-20 13:14:00
7:36 AM,30.0,27.0,88,29.82,10.0,NW,4.6,-,N/A,,Overcast,320,2014-01-20 13:36:00
7:53 AM,30.0,27.0,88,29.84,10.0,NNW,3.5,-,N/A,,Overcast,330,2014-01-20 13:53:00
8:53 AM,30.9,26.1,82,29.86,10.0,NNW,4.6,-,N/A,,Overcast,340,2014-01-20 14:53:00
9:53 AM,30.9,25.0,79,29.89,10.0,North,4.6,-,N/A,,Overcast,350,2014-01-20 15:53:00
10:18 AM,30.9,25.0,79,29.86,10.0,WSW,3.5,-,N/A,,Overcast,240,2014-01-20 16:18:00
10:53 AM,32.0,26.1,79,29.89,10.0,SSW,5.8,-,N/A,,Overcast,200,2014-01-20 16:53:00
11:53 AM,32.0,26.1,79,29.89,10.0,SW,8.1,-,N/A,,Overcast,220,2014-01-20 17:53:00
12:53 PM,33.1,26.1,75,29.88,10.0,West,9.2,-,N/A,,Overcast,260,2014-01-20 18:53:00
1:53 PM,33.1,26.1,75,29.88,10.0,WSW,10.4,-,N/A,,Partly Cloudy,250,2014-01-20 19:53:00
2:26 PM,33.1,26.1,75,29.86,10.0,West,8.1,-,N/A,,Mostly Cloudy,260,2014-01-20 20:26:00
2:45 PM,33.1,26.1,75,29.86,10.0,West,9.2,-,N/A,,Partly Cloudy,280,2014-01-20 20:45:00
2:53 PM,33.1,26.1,75,29.88,10.0,West,8.1,-,N/A,,Partly Cloudy,270,2014-01-20 20:53:00
3:53 PM,32.0,27.0,82,29.91,10.0,West,6.9,-,N/A,,Mostly Cloudy,280,2014-01-20 21:53:00
4:41 PM,30.0,27.0,88,29.90,10.0,North,6.9,-,N/A,,Mostly Cloudy,350,2014-01-20 22:41:00
4:48 PM,30.2,26.6,86,29.90,10.0,North,5.8,-,N/A,,Mostly Cloudy,360,2014-01-20 22:48:00
4:53 PM,30.0,27.0,88,29.93,10.0,North,5.8,-,N/A,,Mostly Cloudy,360,2014-01-20 22:53:00
5:05 PM,28.9,27.0,92,29.91,10.0,North,8.1,-,N/A,,Overcast,10,2014-01-20 23:05:00
5:53 PM,27.0,25.0,92,29.95,10.0,NNE,8.1,18.4,N/A,,Overcast,20,2014-01-20 23:53:00
6:32 PM,26.1,23.0,88,29.94,7.0,NNE,10.4,-,0.00,Snow,Light Snow,30,2014-01-21 00:32:00
6:53 PM,25.0,21.9,88,29.98,9.0,NNE,11.5,-,0.00,Snow,Light Snow,20,2014-01-21 00:53:00
7:46 PM,24.1,19.9,84,29.96,10.0,NNE,8.1,-,0.00,,Overcast,30,2014-01-21 01:46:00
7:53 PM,24.1,19.0,81,30.00,10.0,NE,11.5,-,0.00,,Overcast,40,2014-01-21 01:53:00
8:26 PM,23.0,17.1,78,29.97,10.0,NNE,11.5,18.4,N/A,,Overcast,30,2014-01-21 02:26:00
8:53 PM,21.9,16.0,78,29.99,10.0,NNE,11.5,-,N/A,,Overcast,20,2014-01-21 02:53:00
9:53 PM,21.0,14.0,74,29.99,10.0,NNE,9.2,-,N/A,,Mostly Cloudy,20,2014-01-21 03:53:00
10:53 PM,19.0,12.0,74,30.01,10.0,NNE,12.7,19.6,N/A,,Overcast,30,2014-01-21 04:53:00
11:53 PM,18.0,12.0,78,30.01,10.0,NNE,12.7,23.0,N/A,,Overcast,20,2014-01-21 05:53:00